Time;durP1;ratioP1;P1;durP2;ratioP2;P2;SDS_P1;SDS_P2;PMS_P1;PMS_P2;Temp;Humidity;BMP_temperature;BMP_pressure;BME280_temperature;BME280_humidity;BME280_pressure;Samples;Min_cycle;Max_cycle;Signal;HPM_P1;HPM_P2
2022/01/12 00:01:15;;;;;;;26.58;17.50;;;-0.50;99.90;;;;;;4627796;28;9999809;-71
2022/01/12 00:03:45;;;;;;;26.63;17.45;;;-0.50;99.90;;;;;;4971653;28;20054;-72
2022/01/12 00:06:12;;;;;;;24.15;16.33;;;-0.50;99.90;;;;;;4973663;28;20050;-72
2022/01/12 00:08:37;;;;;;;23.77;16.33;;;-0.50;99.90;;;;;;4976556;28;20616;-72
2022/01/12 00:11:04;;;;;;;26.95;16.65;;;-0.50;99.90;;;;;;4983577;28;20026;-72
2022/01/12 00:13:30;;;;;;;25.08;16.42;;;-0.40;99.90;;;;;;4982631;28;20098;-72
2022/01/12 00:15:57;;;;;;;29.45;18.80;;;-0.40;99.90;;;;;;4979572;28;20031;-72
2022/01/12 00:18:23;;;;;;;31.77;19.30;;;-0.40;99.90;;;;;;4979621;28;20088;-71
2022/01/12 00:20:50;;;;;;;31.95;19.65;;;-0.40;99.90;;;;;;4985831;28;20121;-72
2022/01/12 00:23:16;;;;;;;29.25;18.77;;;-0.40;99.90;;;;;;4984406;28;21487;-74
2022/01/12 00:33:59;;;;;;;29.88;18.20;;;-0.40;99.90;;;;;;4976556;28;20028;-72
2022/01/12 00:36:26;;;;;;;30.13;18.25;;;-0.40;99.90;;;;;;4977357;28;20030;-72
2022/01/12 00:38:51;;;;;;;28.63;18.05;;;-0.40;99.90;;;;;;4983123;28;20026;-71
2022/01/12 00:41:18;;;;;;;28.77;18.33;;;-0.40;99.90;;;;;;4971418;28;20033;-72
2022/01/12 00:43:47;;;;;;;32.35;18.45;;;-0.40;99.90;;;;;;4987657;28;20030;-72
2022/01/12 00:46:14;;;;;;;31.65;18.98;;;-0.40;99.90;;;;;;4983189;28;20635;-72
2022/01/12 00:48:40;;;;;;;33.20;18.35;;;-0.40;99.90;;;;;;4981552;28;20041;-72
2022/01/12 00:51:07;;;;;;;27.83;17.48;;;-0.40;99.90;;;;;;4977375;28;20086;-72
2022/01/12 00:53:33;;;;;;;30.80;18.75;;;-0.40;99.90;;;;;;4983997;28;20046;-72
2022/01/12 00:55:58;;;;;;;31.50;18.58;;;-0.40;99.90;;;;;;4984833;28;20022;-72
2022/01/12 00:58:24;;;;;;;31.05;18.88;;;-0.40;99.90;;;;;;4987462;28;20057;-72
2022/01/12 01:00:50;;;;;;;30.50;19.25;;;-0.40;99.90;;;;;;4978105;28;22457;-71
2022/01/12 01:03:16;;;;;;;36.15;21.55;;;-0.40;99.90;;;;;;4976983;28;20030;-72
2022/01/12 01:05:41;;;;;;;31.65;19.33;;;-0.40;99.90;;;;;;4983891;28;20763;-72
2022/01/12 01:08:08;;;;;;;31.88;19.85;;;-0.40;99.90;;;;;;4980759;28;20034;-71
2022/01/12 01:10:47;;;;;;;29.15;18.92;;;-0.50;99.90;;;;;;4980068;28;20081;-72
2022/01/12 01:13:21;;;;;;;29.05;19.05;;;-0.50;99.90;;;;;;4974292;28;20038;-71
2022/01/12 01:26:28;;;;;;;31.15;18.42;;;-0.70;99.90;;;;;;4980894;28;20165;-72
2022/01/12 01:28:54;;;;;;;31.77;19.48;;;-0.70;99.90;;;;;;4973543;28;20178;-72
2022/01/12 01:31:20;;;;;;;31.45;19.55;;;-0.60;99.90;;;;;;4988072;28;20026;-71
2022/01/12 01:33:47;;;;;;;33.00;19.92;;;-0.60;99.90;;;;;;4981385;28;20030;-71
2022/01/12 01:36:13;;;;;;;31.50;18.77;;;-0.60;99.90;;;;;;4983634;28;20116;-71
2022/01/12 01:38:39;;;;;;;28.67;18.90;;;-0.70;99.90;;;;;;4978390;28;20034;-71
2022/01/12 01:41:05;;;;;;;29.63;18.88;;;-0.70;99.90;;;;;;4982341;28;20060;-71
2022/01/12 01:54:12;;;;;;;29.80;19.00;;;-0.60;99.90;;;;;;4982603;28;20038;-71
2022/01/12 01:56:38;;;;;;;29.75;19.08;;;-0.70;99.90;;;;;;4972619;28;20111;-71
2022/01/12 01:59:04;;;;;;;31.05;18.15;;;-0.70;99.90;;;;;;4985901;28;20034;-71
2022/01/12 02:01:29;;;;;;;27.52;17.73;;;-0.70;99.90;;;;;;4981367;28;20027;-71
2022/01/12 02:03:59;;;;;;;28.70;17.50;;;-0.70;99.90;;;;;;4979338;28;20042;-72
2022/01/12 02:06:25;;;;;;;28.90;16.73;;;-0.70;99.90;;;;;;4983968;28;20105;-71
2022/01/12 02:08:50;;;;;;;32.53;16.83;;;-0.70;99.90;;;;;;4976201;28;20082;-71
2022/01/12 02:11:16;;;;;;;27.63;15.60;;;-0.70;99.90;;;;;;4983528;28;20271;-72
2022/01/12 02:13:42;;;;;;;27.55;15.57;;;-0.70;99.90;;;;;;4981299;28;20061;-72
2022/01/12 02:16:07;;;;;;;29.58;15.73;;;-0.70;99.90;;;;;;4982869;28;20386;-71
2022/01/12 02:40:27;;;;;;;30.30;17.50;;;-0.90;99.90;;;;;;4969589;28;20030;-73
2022/01/12 02:53:46;;;;;;;27.38;16.40;;;-1.00;99.90;;;;;;4985645;28;20062;-73
2022/01/12 02:56:24;;;;;;;25.73;16.42;;;-0.90;99.90;;;;;;4984347;28;20601;-73
2022/01/12 02:58:51;;;;;;;25.13;15.98;;;-0.90;99.90;;;;;;4980117;28;20463;-73
2022/01/12 03:04:05;;;;;;;28.10;15.48;;;-0.80;99.90;;;;;;4981268;28;20092;-73
2022/01/12 03:06:35;;;;;;;24.60;15.68;;;-0.80;99.90;;;;;;4979075;28;20038;-72
2022/01/12 03:09:03;;;;;;;27.60;16.67;;;-0.70;99.90;;;;;;4984777;28;20550;-73
2022/01/12 03:11:29;;;;;;;27.65;16.38;;;-0.70;99.90;;;;;;4982867;28;20609;-72
2022/01/12 03:13:55;;;;;;;28.60;16.65;;;-0.70;99.90;;;;;;4979873;28;20037;-73
2022/01/12 03:16:24;;;;;;;27.70;16.55;;;-0.60;99.90;;;;;;4973240;28;20027;-73
2022/01/12 03:18:53;;;;;;;29.25;16.25;;;-0.60;99.90;;;;;;4970829;28;20426;-72
2022/01/12 03:21:22;;;;;;;29.38;16.95;;;-0.60;99.90;;;;;;4977496;28;20593;-73
2022/01/12 03:23:47;;;;;;;26.88;15.73;;;-0.60;99.90;;;;;;4983901;28;20084;-73
2022/01/12 03:26:13;;;;;;;32.30;18.20;;;-0.60;99.90;;;;;;4980900;28;20030;-73
2022/01/12 03:28:41;;;;;;;39.53;20.38;;;-0.60;99.90;;;;;;4980920;28;20506;-73
2022/01/12 03:31:15;;;;;;;34.40;19.45;;;-0.60;99.90;;;;;;4982021;28;20026;-73
2022/01/12 03:39:00;;;;;;;31.60;18.50;;;-0.50;99.90;;;;;;4974178;28;20035;-72
2022/01/12 03:41:32;;;;;;;28.38;16.30;;;-0.50;99.90;;;;;;4981220;28;20038;-73
2022/01/12 03:43:59;;;;;;;28.60;16.58;;;-0.50;99.90;;;;;;4980160;28;20034;-73
2022/01/12 03:46:40;;;;;;;25.75;15.32;;;-0.50;99.90;;;;;;4973675;28;20106;-73
2022/01/12 03:49:06;;;;;;;29.42;15.75;;;-0.50;99.90;;;;;;4975709;28;20049;-72
2022/01/12 03:51:32;;;;;;;29.90;15.80;;;-0.50;99.90;;;;;;4979325;28;20735;-73
2022/01/12 03:53:58;;;;;;;29.15;15.05;;;-0.40;99.90;;;;;;4984082;28;20026;-73
2022/01/12 03:56:24;;;;;;;24.35;15.05;;;-0.40;99.90;;;;;;4982034;28;20060;-73
2022/01/12 03:58:49;;;;;;;28.50;14.63;;;-0.40;99.90;;;;;;4976666;28;20553;-73
2022/01/12 04:01:15;;;;;;;25.30;15.80;;;-0.30;99.90;;;;;;4968589;28;20126;-73
2022/01/12 04:03:45;;;;;;;27.00;14.82;;;-0.30;99.90;;;;;;4983110;28;20027;-73
2022/01/12 04:08:55;;;;;;;30.73;16.88;;;-0.20;99.90;;;;;;4977969;28;20041;-73
2022/01/12 04:11:20;;;;;;;32.35;16.85;;;-0.20;99.90;;;;;;4983598;28;20018;-73
2022/01/12 04:13:48;;;;;;;31.65;16.83;;;-0.30;99.90;;;;;;4976695;28;20057;-73
2022/01/12 04:16:14;;;;;;;27.83;15.70;;;-0.30;99.90;;;;;;4980557;28;20042;-73
2022/01/12 04:18:40;;;;;;;31.88;17.20;;;-0.30;99.90;;;;;;4981660;28;20109;-73
2022/01/12 04:21:08;;;;;;;31.30;16.67;;;-0.30;99.90;;;;;;4983080;28;20034;-72
2022/01/12 04:23:35;;;;;;;28.27;15.50;;;-0.30;99.90;;;;;;4973679;28;20236;-73
2022/01/12 04:26:08;;;;;;;26.80;15.52;;;-0.30;99.90;;;;;;4967959;28;20038;-73
2022/01/12 04:28:35;;;;;;;25.90;14.65;;;-0.30;99.90;;;;;;4975737;28;20135;-73
2022/01/12 04:31:01;;;;;;;25.15;14.65;;;-0.30;99.90;;;;;;4980237;28;20108;-74
2022/01/12 04:33:28;;;;;;;25.73;15.63;;;-0.30;99.90;;;;;;4973175;28;20815;-72
2022/01/12 04:35:54;;;;;;;26.15;14.32;;;-0.30;99.90;;;;;;4978804;28;20070;-73
2022/01/12 04:38:30;;;;;;;29.08;14.90;;;-0.40;99.90;;;;;;4978871;28;20120;-72
2022/01/12 04:40:56;;;;;;;39.78;18.50;;;-0.40;99.90;;;;;;4980759;28;20039;-72
2022/01/12 04:43:24;;;;;;;27.17;15.45;;;-0.40;99.90;;;;;;4979877;28;20030;-72
2022/01/12 04:50:51;;;;;;;25.67;14.35;;;-0.30;99.90;;;;;;4972298;28;20035;-73
2022/01/12 04:53:19;;;;;;;22.73;14.07;;;-0.30;99.90;;;;;;4987411;28;20041;-72
2022/01/12 04:55:46;;;;;;;22.00;14.48;;;-0.30;99.90;;;;;;4987848;28;20030;-72
2022/01/12 04:58:11;;;;;;;22.33;13.73;;;-0.30;99.90;;;;;;4986534;28;20147;-72
2022/01/12 05:00:38;;;;;;;26.48;15.15;;;-0.40;99.90;;;;;;4983713;28;20482;-72
2022/01/12 05:08:48;;;;;;;29.00;17.63;;;-0.40;99.90;;;;;;4975067;28;20042;-72
2022/01/12 05:13:59;;;;;;;26.75;16.42;;;-0.50;99.90;;;;;;4976257;28;20545;-72
2022/01/12 05:16:25;;;;;;;23.60;15.68;;;-0.50;99.90;;;;;;4977721;28;20062;-72
2022/01/12 05:18:53;;;;;;;25.42;14.85;;;-0.50;99.90;;;;;;4981535;28;20061;-71
2022/01/12 05:21:20;;;;;;;23.65;14.63;;;-0.50;99.90;;;;;;4976576;28;20122;-72
2022/01/12 05:23:47;;;;;;;25.08;15.35;;;-0.50;99.90;;;;;;4984467;28;20045;-72
2022/01/12 05:26:13;;;;;;;24.75;14.65;;;-0.50;99.90;;;;;;4974422;28;20035;-72
2022/01/12 05:28:39;;;;;;;24.60;14.57;;;-0.40;99.90;;;;;;4982193;28;20102;-72
2022/01/12 05:31:06;;;;;;;21.45;13.98;;;-0.40;99.90;;;;;;4978598;28;20058;-72
2022/01/12 05:33:32;;;;;;;18.73;12.63;;;-0.50;99.90;;;;;;4972495;28;20186;-72
2022/01/12 05:36:01;;;;;;;23.08;13.20;;;-0.40;99.90;;;;;;4982835;28;20062;-73
2022/01/12 05:38:27;;;;;;;23.00;13.30;;;-0.40;99.90;;;;;;4976559;28;20061;-73
2022/01/12 05:40:57;;;;;;;22.27;13.25;;;-0.40;99.90;;;;;;4974637;28;20518;-72
2022/01/12 05:43:30;;;;;;;20.35;12.90;;;-0.40;99.90;;;;;;4978673;28;20498;-73
2022/01/12 05:45:58;;;;;;;23.90;14.20;;;-0.40;99.90;;;;;;4983938;28;20572;-73
2022/01/12 05:51:09;;;;;;;24.40;13.70;;;-0.40;99.90;;;;;;4978644;28;20100;-72
2022/01/12 05:53:35;;;;;;;22.35;14.40;;;-0.40;99.90;;;;;;4978903;28;20494;-72
2022/01/12 05:56:00;;;;;;;26.42;15.70;;;-0.40;99.90;;;;;;4984234;28;20072;-75
2022/01/12 05:58:27;;;;;;;26.90;15.75;;;-0.40;99.90;;;;;;4979659;28;20026;-72
2022/01/12 06:00:53;;;;;;;22.70;15.10;;;-0.40;99.90;;;;;;4980174;28;20039;-72
2022/01/12 06:03:19;;;;;;;21.02;13.55;;;-0.40;99.90;;;;;;4978563;28;20027;-72
2022/01/12 06:05:44;;;;;;;24.60;15.23;;;-0.50;99.90;;;;;;4985024;28;20109;-73
2022/01/12 06:08:10;;;;;;;22.70;14.93;;;-0.50;99.90;;;;;;4982598;28;20114;-72
2022/01/12 06:10:36;;;;;;;23.35;14.60;;;-0.50;99.90;;;;;;4978332;28;20031;-72
2022/01/12 06:13:01;;;;;;;20.38;13.52;;;-0.50;99.90;;;;;;4982443;28;20116;-72
2022/01/12 06:15:27;;;;;;;22.25;13.98;;;-0.50;99.90;;;;;;4975833;28;20022;-72
2022/01/12 06:17:52;;;;;;;24.45;14.38;;;-0.50;99.90;;;;;;4976185;28;20030;-73
2022/01/12 06:20:18;;;;;;;22.77;14.23;;;-0.50;99.90;;;;;;4978421;28;20429;-72
2022/01/12 06:22:44;;;;;;;24.48;14.65;;;-0.50;99.90;;;;;;4979816;28;20045;-72
2022/01/12 06:25:14;;;;;;;22.88;13.85;;;-0.40;99.90;;;;;;4981626;28;20084;-73
2022/01/12 06:27:50;;;;;;;23.35;14.35;;;-0.50;99.90;;;;;;4980070;28;20069;-72
2022/01/12 06:33:01;;;;;;;22.83;12.98;;;-0.40;99.90;;;;;;4980242;28;20029;-73
2022/01/12 06:35:27;;;;;;;21.00;13.23;;;-0.40;99.90;;;;;;4975048;28;20031;-72
2022/01/12 06:37:54;;;;;;;19.23;12.50;;;-0.50;99.90;;;;;;4978045;28;20034;-71
2022/01/12 06:40:20;;;;;;;21.00;13.20;;;-0.40;99.90;;;;;;4981691;28;20058;-72
2022/01/12 06:42:47;;;;;;;23.15;14.30;;;-0.40;99.90;;;;;;4975855;28;20644;-72
2022/01/12 06:45:12;;;;;;;21.27;13.80;;;-0.30;99.90;;;;;;4983505;28;20050;-71
2022/01/12 06:47:38;;;;;;;22.58;14.13;;;-0.40;99.90;;;;;;4982436;28;20030;-73
2022/01/12 06:50:06;;;;;;;23.95;14.45;;;-0.30;99.90;;;;;;4979826;28;20031;-73
2022/01/12 06:52:31;;;;;;;26.60;15.38;;;-0.20;99.90;;;;;;4982341;28;20457;-73
2022/01/12 06:54:57;;;;;;;31.17;18.83;;;-0.20;99.90;;;;;;4977859;28;20077;-73
2022/01/12 06:57:23;;;;;;;33.80;21.65;;;-0.20;99.90;;;;;;4985034;28;20026;-72
2022/01/12 06:59:49;;;;;;;34.83;20.95;;;-0.10;99.90;;;;;;4975612;28;20084;-71
2022/01/12 07:02:15;;;;;;;31.80;20.67;;;-0.10;99.90;;;;;;4975089;28;20122;-72
2022/01/12 07:04:40;;;;;;;32.17;19.20;;;-0.10;99.90;;;;;;4977841;28;20040;-72
2022/01/12 07:07:06;;;;;;;31.67;20.42;;;-0.10;99.90;;;;;;4976210;28;20032;-72
2022/01/12 07:09:32;;;;;;;31.20;18.95;;;-0.10;99.90;;;;;;4975784;28;20022;-72
2022/01/12 07:11:57;;;;;;;31.30;18.17;;;-0.10;99.90;;;;;;4976438;28;20056;-73
2022/01/12 07:14:23;;;;;;;32.33;18.17;;;-0.10;99.90;;;;;;4981491;28;20508;-71
2022/01/12 07:16:48;;;;;;;31.20;17.58;;;-0.10;99.90;;;;;;4976800;28;20018;-72
2022/01/12 07:19:14;;;;;;;29.13;17.42;;;-0.10;99.90;;;;;;4978405;28;20046;-73
2022/01/12 07:21:40;;;;;;;25.25;16.42;;;0.00;99.90;;;;;;4974642;28;20261;-72
2022/01/12 07:24:06;;;;;;;25.98;16.27;;;-0.10;99.90;;;;;;4980868;28;20022;-72
2022/01/12 07:26:33;;;;;;;25.55;16.00;;;0.00;99.90;;;;;;4975757;28;20034;-72
2022/01/12 07:28:58;;;;;;;28.10;15.70;;;0.00;99.90;;;;;;4975848;28;20413;-72
2022/01/12 07:31:24;;;;;;;29.60;15.27;;;0.00;99.90;;;;;;4974017;28;20022;-72
2022/01/12 07:33:50;;;;;;;28.27;15.70;;;0.00;99.90;;;;;;4983994;28;20037;-72
2022/01/12 07:36:16;;;;;;;25.05;15.25;;;0.00;99.90;;;;;;4978011;28;20070;-73
2022/01/12 07:38:42;;;;;;;23.52;14.30;;;0.10;99.90;;;;;;4969546;28;20031;-73
2022/01/12 07:41:08;;;;;;;24.27;15.13;;;0.10;99.90;;;;;;4974774;28;20027;-72
2022/01/12 07:43:34;;;;;;;27.58;16.38;;;0.10;99.90;;;;;;4969741;28;20487;-73
2022/01/12 07:45:59;;;;;;;28.58;15.88;;;0.10;99.90;;;;;;4973221;28;20037;-73
2022/01/12 07:48:25;;;;;;;28.45;16.40;;;0.10;99.90;;;;;;4982634;28;20037;-73
2022/01/12 07:50:51;;;;;;;28.05;16.75;;;0.10;99.90;;;;;;4975975;28;20026;-72
2022/01/12 07:53:16;;;;;;;28.58;16.55;;;0.10;99.90;;;;;;4977929;28;20744;-73
2022/01/12 07:55:42;;;;;;;28.55;17.58;;;0.10;99.90;;;;;;4979009;28;20490;-73
2022/01/12 07:58:08;;;;;;;24.50;15.82;;;0.10;99.90;;;;;;4976169;28;20077;-72
2022/01/12 08:00:35;;;;;;;29.63;17.00;;;0.10;99.90;;;;;;4975349;28;20030;-72
2022/01/12 08:03:00;;;;;;;30.08;17.42;;;0.10;99.90;;;;;;4976453;28;20035;-73
2022/01/12 08:05:26;;;;;;;30.00;17.52;;;0.20;99.90;;;;;;4975682;28;20037;-73
2022/01/12 08:07:54;;;;;;;31.00;18.70;;;0.20;99.90;;;;;;4980217;28;20053;-72
2022/01/12 08:10:21;;;;;;;28.23;16.98;;;0.20;99.90;;;;;;4978070;28;20031;-73
2022/01/12 08:12:46;;;;;;;30.08;17.33;;;0.20;99.90;;;;;;4976120;28;20027;-72
2022/01/12 08:15:13;;;;;;;27.00;15.35;;;0.20;99.90;;;;;;4984483;28;20096;-72
2022/01/12 08:17:39;;;;;;;31.95;17.67;;;0.20;99.90;;;;;;4976187;28;20030;-73
2022/01/12 08:20:08;;;;;;;27.55;16.70;;;0.20;99.90;;;;;;4978163;28;20026;-72
2022/01/12 08:22:34;;;;;;;28.73;16.88;;;0.20;99.90;;;;;;4982831;28;20037;-73
2022/01/12 08:24:59;;;;;;;28.67;17.23;;;0.20;99.90;;;;;;4980205;28;20030;-73
2022/01/12 08:27:25;;;;;;;32.30;18.65;;;0.30;99.90;;;;;;4979931;28;20046;-72
2022/01/12 08:29:58;;;;;;;33.22;18.90;;;0.30;99.90;;;;;;4984164;28;20022;-72
2022/01/12 08:32:23;;;;;;;30.75;16.98;;;0.30;99.90;;;;;;4989476;28;20022;-73
2022/01/12 08:34:49;;;;;;;31.52;18.50;;;0.40;99.90;;;;;;4976398;28;20475;-72
2022/01/12 08:37:15;;;;;;;31.80;17.85;;;0.40;99.90;;;;;;4979198;28;20107;-72
2022/01/12 08:39:40;;;;;;;31.98;19.35;;;0.50;99.90;;;;;;4983869;28;20045;-73
2022/01/12 08:42:06;;;;;;;34.40;20.05;;;0.50;99.90;;;;;;4981799;28;20482;-76
2022/01/12 08:44:32;;;;;;;32.47;20.48;;;0.60;99.90;;;;;;4982607;28;20038;-76
2022/01/12 08:46:58;;;;;;;32.00;18.85;;;0.60;99.90;;;;;;4984368;28;20410;-80
2022/01/12 08:49:23;;;;;;;35.33;19.58;;;0.70;99.90;;;;;;4984977;28;20022;-76
2022/01/12 08:51:49;;;;;;;33.53;19.13;;;0.70;99.90;;;;;;4975845;28;20034;-74
2022/01/12 08:54:14;;;;;;;35.88;22.73;;;0.80;99.90;;;;;;4986422;28;20440;-74
2022/01/12 08:56:40;;;;;;;32.20;19.75;;;0.80;99.90;;;;;;4982291;28;20023;-75
2022/01/12 08:59:06;;;;;;;32.65;19.83;;;0.80;99.90;;;;;;4974926;28;20501;-75
2022/01/12 09:01:31;;;;;;;31.17;18.50;;;0.80;99.90;;;;;;4974942;28;20478;-75
2022/01/12 09:03:57;;;;;;;32.22;19.05;;;0.80;99.90;;;;;;4972209;28;20042;-77
2022/01/12 09:06:22;;;;;;;32.85;19.00;;;0.80;99.90;;;;;;4975178;28;20056;-77
2022/01/12 09:08:49;;;;;;;32.17;18.88;;;0.80;99.90;;;;;;4976589;28;20027;-76
2022/01/12 09:11:17;;;;;;;31.15;19.15;;;0.90;99.90;;;;;;4975269;28;20022;-77
2022/01/12 09:13:43;;;;;;;31.40;18.92;;;0.90;99.90;;;;;;4981556;28;20033;-76
2022/01/12 09:16:10;;;;;;;34.20;18.85;;;0.90;99.90;;;;;;4975420;28;20027;-76
2022/01/12 09:18:38;;;;;;;29.33;18.45;;;0.90;99.90;;;;;;4979633;28;20420;-76
2022/01/12 09:21:04;;;;;;;32.90;19.48;;;1.00;99.90;;;;;;4982836;28;20386;-78
2022/01/12 09:23:30;;;;;;;33.40;18.88;;;1.00;99.90;;;;;;4975384;28;20163;-77
2022/01/12 09:25:56;;;;;;;30.63;18.70;;;1.00;99.90;;;;;;4977902;28;20115;-78
2022/01/12 09:28:22;;;;;;;36.17;20.65;;;1.00;99.90;;;;;;4984864;28;20046;-78
2022/01/12 09:30:47;;;;;;;33.35;19.65;;;1.00;99.90;;;;;;4987591;28;20033;-79
2022/01/12 09:33:13;;;;;;;32.67;19.13;;;1.10;99.90;;;;;;4981247;28;20042;-77
2022/01/12 09:35:39;;;;;;;32.30;19.02;;;1.00;99.90;;;;;;4983486;28;20113;-78
2022/01/12 09:38:04;;;;;;;36.30;19.75;;;1.00;99.90;;;;;;4983901;28;20034;-77
2022/01/12 09:40:30;;;;;;;33.13;18.80;;;1.00;99.90;;;;;;4981830;28;20383;-77
2022/01/12 09:42:58;;;;;;;34.65;19.25;;;1.10;99.90;;;;;;4983844;28;20925;-78
2022/01/12 09:45:26;;;;;;;34.20;19.73;;;1.00;99.90;;;;;;4985944;28;20026;-77
2022/01/12 09:47:52;;;;;;;34.00;20.05;;;1.10;99.90;;;;;;4980651;28;20430;-76
2022/01/12 09:50:21;;;;;;;37.38;20.38;;;1.10;99.90;;;;;;4973561;28;20035;-77
2022/01/12 09:52:47;;;;;;;35.42;19.35;;;1.10;99.90;;;;;;4980900;28;20601;-77
2022/01/12 09:55:13;;;;;;;32.45;19.70;;;;;;;;;;4973014;28;20033;-72
2022/01/12 09:57:39;;;;;;;34.80;18.95;;;1.10;99.90;;;;;;4983334;28;20097;-74
2022/01/12 10:00:06;;;;;;;38.25;20.38;;;1.10;99.90;;;;;;4980209;28;20030;-73
2022/01/12 10:02:33;;;;;;;42.13;21.05;;;1.10;99.90;;;;;;4977074;28;20038;-72
2022/01/12 10:05:00;;;;;;;33.80;19.98;;;1.10;99.90;;;;;;4981143;28;20045;-73
2022/01/12 10:07:26;;;;;;;34.22;20.52;;;1.20;99.90;;;;;;4973932;28;20050;-72
2022/01/12 10:09:56;;;;;;;39.95;21.55;;;1.20;99.90;;;;;;4974017;28;20368;-73
2022/01/12 10:12:22;;;;;;;38.42;20.60;;;1.20;99.90;;;;;;4978749;28;20180;-72
2022/01/12 10:15:00;;;;;;;39.28;21.25;;;1.20;99.90;;;;;;4982096;28;20030;-73
2022/01/12 10:17:41;;;;;;;35.05;19.55;;;1.30;99.90;;;;;;4974647;28;20253;-72
2022/01/12 10:20:10;;;;;;;37.97;20.30;;;1.20;99.90;;;;;;4978692;28;20050;-72
2022/01/12 10:22:38;;;;;;;34.92;21.10;;;1.20;99.90;;;;;;4982004;28;20042;-73
2022/01/12 10:25:24;;;;;;;39.22;21.38;;;1.20;99.90;;;;;;4977307;28;20042;-73
2022/01/12 10:27:50;;;;;;;38.00;22.20;;;1.20;99.90;;;;;;4980726;28;20687;-72
2022/01/12 10:30:22;;;;;;;36.17;22.35;;;1.20;99.90;;;;;;4981015;28;20043;-73
2022/01/12 10:32:58;;;;;;;35.88;20.60;;;1.20;99.90;;;;;;4976109;28;20038;-72
2022/01/12 10:35:29;;;;;;;37.78;20.85;;;1.30;99.90;;;;;;4978161;28;20035;-73
2022/01/12 10:38:11;;;;;;;37.65;22.17;;;1.30;99.90;;;;;;4979317;28;20540;-72
2022/01/12 10:40:53;;;;;;;38.30;21.88;;;1.30;99.90;;;;;;4973340;28;20043;-73
2022/01/12 10:43:25;;;;;;;38.60;21.10;;;1.30;99.90;;;;;;4975836;28;20125;-72
2022/01/12 10:45:51;;;;;;;36.78;21.45;;;1.50;99.90;;;;;;4979005;28;20053;-72
2022/01/12 10:48:16;;;;;;;38.10;23.25;;;1.50;99.90;;;;;;4978140;28;20801;-72
2022/01/12 10:50:53;;;;;;;39.28;22.55;;;1.50;99.90;;;;;;4975896;28;20026;-72
2022/01/12 10:53:34;;;;;;;38.15;22.77;;;1.50;99.90;;;;;;4974162;28;20061;-73
2022/01/12 10:56:15;;;;;;;38.90;23.00;;;1.50;99.90;;;;;;4975341;28;20030;-72
2022/01/12 10:58:43;;;;;;;40.53;23.13;;;1.60;99.90;;;;;;4983824;28;20034;-72
2022/01/12 11:01:10;;;;;;;36.97;21.98;;;1.60;99.90;;;;;;4973958;28;20038;-72
2022/01/12 11:03:37;;;;;;;39.75;22.02;;;1.60;99.90;;;;;;4983704;28;20560;-73
2022/01/12 11:06:04;;;;;;;41.85;23.33;;;1.60;99.90;;;;;;4983190;28;20026;-72
2022/01/12 11:08:30;;;;;;;39.75;22.52;;;1.70;99.90;;;;;;4972069;28;20057;-72
2022/01/12 11:10:58;;;;;;;34.83;21.95;;;1.70;99.90;;;;;;4979480;28;20037;-73
2022/01/12 11:13:25;;;;;;;38.65;22.88;;;1.70;99.90;;;;;;4982501;28;20881;-72
2022/01/12 11:15:52;;;;;;;42.70;26.05;;;1.70;99.90;;;;;;4975678;28;20379;-72
2022/01/12 11:18:21;;;;;;;41.50;25.55;;;1.80;99.90;;;;;;4971885;28;20026;-73
2022/01/12 11:20:49;;;;;;;40.20;23.83;;;1.80;99.90;;;;;;4981555;28;20036;-72
2022/01/12 11:23:17;;;;;;;35.80;23.02;;;1.70;99.90;;;;;;4971681;28;20093;-72
2022/01/12 11:25:47;;;;;;;43.67;25.83;;;1.80;99.90;;;;;;4977402;28;20831;-72
2022/01/12 11:28:25;;;;;;;43.30;25.63;;;1.80;99.90;;;;;;4973975;28;20047;-73
2022/01/12 11:30:51;;;;;;;44.33;26.88;;;1.80;99.90;;;;;;4959258;28;20059;-72
2022/01/12 11:33:34;;;;;;;38.58;25.02;;;1.80;99.90;;;;;;4951731;28;20510;-72
2022/01/12 11:36:16;;;;;;;44.30;24.63;;;1.80;99.90;;;;;;4940753;28;20513;-74
2022/01/12 11:38:47;;;;;;;42.88;24.85;;;1.80;99.90;;;;;;4958389;28;20080;-73
2022/01/12 11:41:28;;;;;;;40.45;25.27;;;1.80;99.90;;;;;;4951471;28;20101;-73
2022/01/12 11:44:01;;;;;;;42.25;24.33;;;1.80;99.90;;;;;;4952907;28;20045;-72
2022/01/12 11:46:39;;;;;;;41.72;24.40;;;1.80;99.90;;;;;;4955314;28;20470;-73
2022/01/12 11:49:05;;;;;;;59.55;33.42;;;1.90;99.90;;;;;;4612126;28;9999772;-73
2022/01/12 11:51:40;;;;;;;48.67;28.42;;;1.90;99.90;;;;;;4950087;28;20031;-73
2022/01/12 11:54:08;;;;;;;46.70;29.55;;;1.90;99.90;;;;;;4958599;28;20313;-73
2022/01/12 11:56:34;;;;;;;37.58;24.27;;;;;;;;;;4950793;28;20054;-73
2022/01/12 11:59:06;;;;;;;42.83;23.38;;;;;;;;;;4959283;28;20089;-73
2022/01/12 12:01:37;;;;;;;36.38;21.92;;;;;;;;;;4958737;28;20056;-73
2022/01/12 12:04:04;;;;;;;36.97;22.17;;;;;;;;;;4965769;28;20043;-73
2022/01/12 12:06:31;;;;;;;39.38;22.48;;;;;;;;;;4954750;28;20114;-72
2022/01/12 12:09:01;;;;;;;35.95;21.88;;;;;;;;;;4953358;28;20031;-73
2022/01/12 12:11:28;;;;;;;34.25;20.80;;;;;;;;;;4959238;28;20110;-73
2022/01/12 12:14:08;;;;;;;38.67;22.42;;;;;;;;;;4958336;28;20558;-72
2022/01/12 12:16:37;;;;;;;36.50;22.30;;;;;;;;;;4963649;28;20034;-73
2022/01/12 12:19:04;;;;;;;40.78;24.67;;;;;;;;;;4965077;28;20118;-73
2022/01/12 12:21:34;;;;;;;41.63;22.98;;;2.20;99.90;;;;;;4960003;28;20023;-73
2022/01/12 12:24:12;;;;;;;37.60;24.15;;;2.10;99.90;;;;;;4967892;28;20027;-73
2022/01/12 12:26:47;;;;;;;42.10;26.10;;;2.10;99.90;;;;;;4966488;28;20059;-73
2022/01/12 12:29:15;;;;;;;41.40;25.00;;;2.10;99.90;;;;;;4982690;28;20031;-72
2022/01/12 12:31:45;;;;;;;39.70;24.48;;;2.20;99.90;;;;;;4986931;28;20061;-72
2022/01/12 12:34:10;;;;;;;38.47;23.40;;;2.20;99.90;;;;;;4980006;28;20069;-73
2022/01/12 12:36:36;;;;;;;40.70;25.23;;;2.20;99.90;;;;;;4981545;28;20057;-73
2022/01/12 12:39:11;;;;;;;39.75;24.42;;;2.30;99.90;;;;;;4980175;28;20030;-73
2022/01/12 12:41:44;;;;;;;42.25;24.52;;;2.30;99.90;;;;;;4986676;28;20038;-73
2022/01/12 12:44:28;;;;;;;41.65;24.90;;;2.30;99.90;;;;;;4978152;28;20482;-73
2022/01/12 12:47:08;;;;;;;;;;;2.40;99.90;;;;;;4982765;28;20136;-73
2022/01/12 12:49:57;;;;;;;56.58;29.95;;;2.50;99.90;;;;;;4977538;28;19929;-74
2022/01/12 12:52:28;;;;;;;45.95;26.77;;;2.50;99.90;;;;;;4973104;28;20050;-74
2022/01/12 12:54:54;;;;;;;50.90;30.63;;;2.50;99.90;;;;;;4986259;28;20061;-74
2022/01/12 12:57:21;;;;;;;45.00;26.40;;;2.50;99.90;;;;;;4985546;28;20031;-74
2022/01/12 13:00:11;;;;;;;38.58;24.58;;;2.60;99.90;;;;;;4976286;28;20031;-74
2022/01/12 13:02:42;;;;;;;39.03;22.77;;;2.60;99.90;;;;;;4981226;28;20042;-74
2022/01/12 13:05:12;;;;;;;33.92;21.73;;;2.70;99.90;;;;;;4983239;28;20031;-74
2022/01/12 13:07:42;;;;;;;34.60;21.50;;;2.70;99.90;;;;;;4976273;28;20541;-74
2022/01/12 13:10:13;;;;;;;33.83;20.77;;;2.70;99.90;;;;;;4980014;28;20034;-74
2022/01/12 13:12:40;;;;;;;34.33;20.73;;;2.70;99.90;;;;;;4983039;28;20507;-74
2022/01/12 13:15:08;;;;;;;37.03;22.67;;;2.70;99.90;;;;;;4982995;28;20398;-73
2022/01/12 13:17:37;;;;;;;36.30;22.50;;;2.70;99.90;;;;;;4980448;28;20066;-74
2022/01/12 13:22:33;;;;;;;37.72;23.05;;;2.60;99.90;;;;;;4985068;28;20038;-73
2022/01/12 13:25:01;;;;;;;32.60;20.73;;;2.60;99.90;;;;;;4985305;28;20485;-73
2022/01/12 13:27:28;;;;;;;32.33;20.40;;;2.60;99.90;;;;;;4983422;28;20570;-73
2022/01/12 13:29:54;;;;;;;33.30;20.05;;;2.70;99.90;;;;;;4969627;28;20023;-73
2022/01/12 13:32:20;;;;;;;30.95;19.50;;;2.60;99.90;;;;;;4982433;28;20030;-73
2022/01/12 13:35:00;;;;;;;31.88;21.73;;;2.60;99.90;;;;;;4971798;28;20557;-73
2022/01/12 13:37:26;;;;;;;29.98;20.15;;;2.70;99.90;;;;;;4970409;28;20026;-74
2022/01/12 13:40:12;;;;;;;34.05;21.40;;;2.70;99.90;;;;;;4977551;28;20019;-73
2022/01/12 13:42:56;;;;;;;31.40;20.83;;;2.70;99.90;;;;;;4979072;28;20554;-73
2022/01/12 13:45:25;;;;;;;34.42;20.92;;;2.70;99.90;;;;;;4969405;28;20027;-74
2022/01/12 13:47:59;;;;;;;35.70;21.35;;;2.70;99.90;;;;;;4983244;28;20039;-73
2022/01/12 13:50:36;;;;;;;35.92;22.45;;;2.70;99.90;;;;;;4973730;28;20057;-73
2022/01/12 13:53:06;;;;;;;36.35;21.48;;;2.60;99.90;;;;;;4972428;28;20053;-75
2022/01/12 13:55:34;;;;;;;37.47;22.63;;;2.70;99.90;;;;;;4973689;28;20662;-73
2022/01/12 13:58:05;;;;;;;34.38;21.83;;;2.60;99.90;;;;;;4983779;28;20524;-74
2022/01/12 14:00:31;;;;;;;32.85;21.75;;;2.60;99.90;;;;;;4976474;28;20030;-74
2022/01/12 14:02:57;;;;;;;37.13;21.80;;;2.60;99.90;;;;;;4986553;28;20039;-73
2022/01/12 14:05:39;;;;;;;44.70;26.45;;;2.60;99.90;;;;;;4974182;28;20478;-72
2022/01/12 14:08:13;;;;;;;42.13;23.23;;;2.60;99.90;;;;;;4974961;28;20034;-73
2022/01/12 14:10:52;;;;;;;38.78;21.30;;;2.60;99.90;;;;;;4980735;28;20027;-73
2022/01/12 14:13:29;;;;;;;40.03;23.77;;;2.60;99.90;;;;;;4978323;28;20031;-73
2022/01/12 14:16:37;;;;;;;40.15;24.23;;;2.60;99.90;;;;;;4973859;28;20027;-73